Time;durP1;ratioP1;P1;durP2;ratioP2;P2;SDS_P1;SDS_P2;PMS_P1;PMS_P2;Temp;Humidity;BMP_temperature;BMP_pressure;BME280_temperature;BME280_humidity;BME280_pressure;Samples;Min_cycle;Max_cycle;Signal;HPM_P1;HPM_P2
2023/08/22 00:01:29;;;;;;;10.80;9.93;;;;;;;;;;5066143;28;20199;-63
2023/08/22 00:03:56;;;;;;;10.27;9.43;;;;;;;;;;5065693;28;20206;-64
2023/08/22 00:06:23;;;;;;;11.88;9.60;;;;;;;;;;5064651;28;20259;-64
2023/08/22 00:08:49;;;;;;;10.88;9.27;;;;;;;;;;5065455;28;20230;-64
2023/08/22 00:11:16;;;;;;;12.30;10.13;;;;;;;;;;5064921;28;20210;-66
2023/08/22 00:13:42;;;;;;;11.77;10.77;;;;;;;;;;5064330;28;20237;-64
2023/08/22 00:16:10;;;;;;;11.55;10.65;;;;;;;;;;5056712;28;20238;-65
2023/08/22 00:18:37;;;;;;;11.18;10.32;;;;;;;;;;5049548;28;20300;-64
2023/08/22 00:21:03;;;;;;;13.15;10.45;;;;;;;;;;5051925;28;20264;-64
2023/08/22 00:23:30;;;;;;;10.18;9.15;;;;;;;;;;5047370;28;20598;-63
2023/08/22 00:25:56;;;;;;;13.52;9.85;;;;;;;;;;5051459;28;20202;-66
2023/08/22 00:28:23;;;;;;;11.60;10.50;;;;;;;;;;5049169;28;20287;-64
2023/08/22 00:30:52;;;;;;;10.77;9.82;;;;;;;;;;5050153;28;20268;-64
2023/08/22 00:33:20;;;;;;;12.57;9.13;;;;;;;;;;5049318;28;20203;-63
2023/08/22 00:35:46;;;;;;;11.13;10.32;;;;;;;;;;5051738;28;20583;-63
2023/08/22 00:38:13;;;;;;;11.27;10.25;;;;;;;;;;5048462;28;20292;-65
2023/08/22 00:40:39;;;;;;;10.20;9.38;;;;;;;;;;5053963;28;20211;-66
2023/08/22 00:43:06;;;;;;;11.00;10.00;;;;;;;;;;5050598;28;20318;-66
2023/08/22 00:45:32;;;;;;;13.23;9.40;;;;;;;;;;5054672;28;20230;-66
2023/08/22 00:47:59;;;;;;;10.77;9.68;;;;;;;;;;5052509;28;20745;-66
2023/08/22 00:50:27;;;;;;;10.45;9.60;;;;;;;;;;5053689;28;20246;-67
2023/08/22 00:52:53;;;;;;;12.10;9.68;;;;;;;;;;5048231;28;20223;-66
2023/08/22 00:55:19;;;;;;;11.10;10.18;;;;;;;;;;5053300;28;20198;-66
2023/08/22 00:57:46;;;;;;;11.90;10.90;;;;;;;;;;5050210;28;20277;-66
2023/08/22 01:00:13;;;;;;;11.20;10.40;;;;;;;;;;5050154;28;20234;-67
2023/08/22 01:02:40;;;;;;;11.00;10.18;;;;;;;;;;5069861;28;20264;-64
2023/08/22 01:05:07;;;;;;;11.32;10.32;;;;;;;;;;5070921;28;20198;-67
2023/08/22 01:07:36;;;;;;;13.63;9.90;;;;;;;;;;5060634;28;20209;-66
2023/08/22 01:10:07;;;;;;;11.38;10.27;;;;;;;;;;5065984;28;20207;-66
2023/08/22 01:12:36;;;;;;;13.52;10.98;;;;;;;;;;5065327;28;20214;-66
2023/08/22 01:15:07;;;;;;;10.38;9.48;;;;;;;;;;5064572;28;20478;-65
2023/08/22 01:17:34;;;;;;;12.57;11.10;;;;;;;;;;5065571;28;20226;-66
2023/08/22 01:20:00;;;;;;;10.93;9.82;;;;;;;;;;5065100;28;20379;-66
2023/08/22 01:22:28;;;;;;;11.35;10.45;;;;;;;;;;5060590;28;20272;-66
2023/08/22 01:24:54;;;;;;;11.68;10.63;;;;;;;;;;5052397;28;20712;-66
2023/08/22 01:27:23;;;;;;;11.02;9.88;;;;;;;;;;5051588;28;20202;-66
2023/08/22 01:29:52;;;;;;;10.98;10.05;;;;;;;;;;5051078;28;20207;-66
2023/08/22 01:32:21;;;;;;;12.07;11.07;;;;;;;;;;5048796;28;20253;-66
2023/08/22 01:34:48;;;;;;;11.82;10.82;;;;;;;;;;5064447;28;20217;-65
2023/08/22 01:37:15;;;;;;;18.50;11.50;;;;;;;;;;5064470;28;21779;-66
2023/08/22 01:39:45;;;;;;;12.63;11.48;;;;;;;;;;5064619;28;20234;-66
2023/08/22 01:42:12;;;;;;;12.57;11.23;;;;;;;;;;5064758;28;20505;-66
2023/08/22 01:44:38;;;;;;;14.65;11.35;;;;;;;;;;5058039;28;20720;-66
2023/08/22 01:47:05;;;;;;;11.88;10.85;;;;;;;;;;5050969;28;20269;-66
2023/08/22 01:49:35;;;;;;;12.77;11.15;;;;;;;;;;5063202;28;20195;-65
2023/08/22 01:52:02;;;;;;;11.88;11.07;;;;;;;;;;5063984;28;20307;-66
2023/08/22 01:54:28;;;;;;;14.77;11.38;;;;;;;;;;5064918;28;20210;-66
2023/08/22 01:56:56;;;;;;;15.05;11.13;;;;;;;;;;5064555;28;20214;-65
2023/08/22 01:59:22;;;;;;;18.45;11.23;;;;;;;;;;5063383;28;20209;-66
2023/08/22 02:01:49;;;;;;;13.45;11.40;;;;;;;;;;5062854;28;20226;-66
2023/08/22 02:04:15;;;;;;;13.68;11.02;;;;;;;;;;5063791;28;20284;-66
2023/08/22 02:06:42;;;;;;;21.10;10.75;;;;;;;;;;5064426;28;20644;-66
2023/08/22 02:09:09;;;;;;;12.80;10.40;;;;;;;;;;5062170;28;20222;-66
2023/08/22 02:11:36;;;;;;;11.93;10.88;;;;;;;;;;5061663;28;20210;-66
2023/08/22 02:14:04;;;;;;;11.68;10.63;;;;;;;;;;5062037;28;20198;-66
2023/08/22 02:16:30;;;;;;;13.07;11.07;;;;;;;;;;5062499;28;20628;-66
2023/08/22 02:18:57;;;;;;;12.60;11.05;;;;;;;;;;5059877;28;20219;-67
2023/08/22 02:21:23;;;;;;;13.07;11.82;;;;;;;;;;5061715;28;20263;-66
2023/08/22 02:23:50;;;;;;;14.35;11.38;;;;;;;;;;5062390;28;20676;-67
2023/08/22 02:26:16;;;;;;;12.35;11.20;;;;;;;;;;5051763;28;20694;-65
2023/08/22 02:28:42;;;;;;;13.10;12.13;;;;;;;;;;5058911;28;20277;-66
2023/08/22 02:31:10;;;;;;;14.02;10.65;;;;;;;;;;5061174;28;20194;-66
2023/08/22 02:33:37;;;;;;;13.45;11.65;;;;;;;;;;5054505;28;20627;-66
2023/08/22 02:36:03;;;;;;;12.35;11.20;;;;;;;;;;5064624;28;20199;-67
2023/08/22 02:38:30;;;;;;;12.25;10.73;;;;;;;;;;5064597;28;21855;-66
2023/08/22 02:40:56;;;;;;;13.00;11.90;;;;;;;-142.91;100.00;57152.97;5064336;28;20252;-65
2023/08/22 02:43:23;;;;;;;11.30;10.50;;;;;;;;;;5063894;28;20233;-66
2023/08/22 02:45:49;;;;;;;17.77;11.75;;;;;;;;;;5064731;28;20199;-65
2023/08/22 02:48:17;;;;;;;13.55;11.57;;;;;;;;;;5064319;28;20230;-66
2023/08/22 02:50:44;;;;;;;12.80;11.65;;;;;;;;;;5059870;28;20754;-65
2023/08/22 02:53:14;;;;;;;12.73;11.82;;;;;;;;;;5054268;28;20277;-66
2023/08/22 02:55:40;;;;;;;13.38;12.00;;;;;;;;;;5049669;28;20207;-66
2023/08/22 02:58:07;;;;;;;13.30;11.85;;;;;;;;;;5059088;28;20226;-67
2023/08/22 03:00:36;;;;;;;13.13;12.02;;;;;;;-142.91;100.00;56616.03;5063872;28;20733;-67
2023/08/22 03:03:03;;;;;;;13.23;12.15;;;;;;;;;;5063989;28;20226;-66
2023/08/22 03:05:31;;;;;;;17.13;11.55;;;;;;;;;;5064914;28;20298;-66
2023/08/22 03:07:57;;;;;;;12.35;11.13;;;;;;;;;;5063629;28;20230;-66
2023/08/22 03:10:24;;;;;;;16.23;12.13;;;;;;;;;;5062483;28;20199;-67
2023/08/22 03:12:50;;;;;;;13.13;11.88;;;;;;;;;;5066155;28;20251;-66
2023/08/22 03:15:17;;;;;;;12.52;11.43;;;;;;;;;;5068757;28;20226;-66
2023/08/22 03:17:43;;;;;;;11.60;10.52;;;;;;;;;;5069057;28;20706;-66
2023/08/22 03:20:10;;;;;;;12.70;11.45;;;;;;;;;;5067145;28;20202;-67
2023/08/22 03:22:38;;;;;;;13.75;12.55;;;;;;;;;;5067967;28;20289;-66
2023/08/22 03:25:05;;;;;;;14.32;12.25;;;;;;;;;;5066219;28;20641;-66
2023/08/22 03:27:31;;;;;;;14.18;12.35;;;;;;;;;;5068184;28;20307;-66
2023/08/22 03:29:58;;;;;;;12.18;11.15;;;;;;;;;;5067623;28;20220;-66
2023/08/22 03:32:24;;;;;;;13.13;11.48;;;;;;;;;;5066825;28;20205;-66
2023/08/22 03:34:51;;;;;;;13.20;11.55;;;;;;;;;;5062629;28;20261;-66
2023/08/22 03:37:17;;;;;;;13.35;12.15;;;;;;;;;;5059404;28;20226;-66
2023/08/22 03:39:45;;;;;;;13.65;12.35;;;;;;;;;;5065700;28;20592;-67
2023/08/22 03:42:11;;;;;;;15.95;12.02;;;;;;;;;;5067676;28;20732;-67
2023/08/22 03:44:38;;;;;;;13.13;12.13;;;;;;;;;;5067304;28;20741;-67
2023/08/22 03:47:04;;;;;;;14.45;11.77;;;;;;;;;;5066672;28;20230;-67
2023/08/22 03:49:31;;;;;;;14.60;13.27;;;;;;;;;;5067265;28;20225;-67
2023/08/22 03:51:57;;;;;;;23.17;20.45;;;;;;;;;;5066968;28;20215;-67
2023/08/22 03:54:24;;;;;;;20.42;17.13;;;;;;;;;;5065425;28;20207;-67
2023/08/22 03:56:52;;;;;;;25.80;17.20;;;;;;;;;;5053669;28;20211;-67
2023/08/22 03:59:18;;;;;;;28.75;20.90;;;;;;;;;;5057537;28;20258;-67
2023/08/22 04:01:44;;;;;;;16.02;14.38;;;;;;;;;;5054839;28;20693;-67
2023/08/22 04:04:14;;;;;;;14.05;12.80;;;;;;;;;;5054264;28;20252;-66
2023/08/22 04:06:40;;;;;;;12.55;11.10;;;;;;;;;;5053999;28;20226;-67
2023/08/22 04:09:07;;;;;;;14.27;12.43;;;;;;;;;;5049041;28;20202;-67
2023/08/22 04:11:33;;;;;;;12.50;11.35;;;;;;;;;;5053435;28;20729;-67
2023/08/22 04:14:01;;;;;;;12.25;11.23;;;;;;;;;;5064665;28;20571;-68
2023/08/22 04:16:27;;;;;;;12.77;11.45;;;;;;;;;;5064770;28;20633;-67
2023/08/22 04:18:54;;;;;;;22.90;18.58;;;;;;;;;;5064385;28;20275;-68
2023/08/22 04:21:20;;;;;;;21.15;18.88;;;;;;;;;;5064979;28;20279;-67
2023/08/22 04:23:47;;;;;;;18.67;15.00;;;;;;;;;;5063681;28;20198;-67
2023/08/22 04:26:13;;;;;;;14.23;12.70;;;;;;;;;;5063923;28;20206;-68
2023/08/22 04:28:40;;;;;;;14.68;13.23;;;;;;;;;;5065559;28;20430;-68
2023/08/22 04:31:08;;;;;;;27.42;19.00;;;;;;;;;;5063490;28;20242;-65
2023/08/22 04:33:34;;;;;;;30.40;23.80;;;;;;;;;;5052360;28;20260;-68
2023/08/22 04:36:01;;;;;;;24.88;18.63;;;;;;;;;;5051442;28;20597;-68
2023/08/22 04:38:27;;;;;;;17.58;14.27;;;;;;;;;;5050253;28;20648;-67
2023/08/22 04:40:53;;;;;;;14.57;13.23;;;;;;;;;;5051410;28;20349;-68
2023/08/22 04:43:20;;;;;;;14.27;13.07;;;;;;;;;;5049597;28;20266;-66
2023/08/22 04:45:46;;;;;;;15.10;13.80;;;;;;;;;;5053788;28;20230;-66
2023/08/22 04:48:14;;;;;;;22.88;20.20;;;;;;;;;;5049307;28;20306;-67
2023/08/22 04:50:40;;;;;;;15.68;14.20;;;;;;;;;;5050913;28;20289;-68
2023/08/22 04:53:07;;;;;;;12.55;11.57;;;;;;;;;;5060540;28;20249;-68
2023/08/22 04:55:33;;;;;;;12.07;10.75;;;;;;;;;;5065172;28;20218;-67
2023/08/22 04:58:00;;;;;;;13.75;12.40;;;;;;;;;;5063199;28;20207;-69
2023/08/22 05:00:26;;;;;;;12.75;11.73;;;;;;;;;;5063530;28;20226;-68
2023/08/22 05:02:53;;;;;;;11.82;10.70;;;;;;;;;;5065377;28;20229;-66
2023/08/22 05:05:20;;;;;;;12.95;10.70;;;;;;;;;;5065041;28;20238;-68
2023/08/22 05:07:47;;;;;;;12.60;11.50;;;;;;;;;;5065279;28;20230;-68
2023/08/22 05:10:13;;;;;;;11.82;10.55;;;;;;;;;;5065584;28;20704;-67
2023/08/22 05:12:40;;;;;;;12.70;10.45;;;;;;;;;;5065480;28;20307;-68
2023/08/22 05:15:07;;;;;;;11.90;10.73;;;;;;;;;;5064517;28;20293;-67
2023/08/22 05:17:33;;;;;;;11.40;10.40;;;;;;;;;;5060737;28;20223;-68
2023/08/22 05:19:59;;;;;;;12.82;11.82;;;;;;;;;;5048652;28;20263;-68
2023/08/22 05:22:27;;;;;;;11.93;10.68;;;;;;;;;;5052682;28;20202;-68
2023/08/22 05:24:54;;;;;;;11.10;10.15;;;;;;;;;;5053117;28;20199;-67
2023/08/22 05:27:20;;;;;;;11.63;10.43;;;;;;;;;;5052767;28;20695;-68
2023/08/22 05:29:47;;;;;;;11.05;10.13;;;;;;;;;;5049450;28;20782;-68
2023/08/22 05:32:13;;;;;;;11.77;10.88;;;;;;;;;;5052871;28;20206;-68
2023/08/22 05:34:40;;;;;;;11.40;10.40;;;;;;;;;;5049481;28;20226;-68
2023/08/22 05:37:06;;;;;;;12.60;10.73;;;;;;;;;;5052462;28;20873;-67
2023/08/22 05:39:34;;;;;;;15.65;11.25;;;;;;;;;;5059290;28;20250;-69
2023/08/22 05:42:00;;;;;;;17.75;11.88;;;;;;;;;;5064977;28;20230;-69
2023/08/22 05:44:29;;;;;;;12.65;10.30;;;;;;;;;;5063126;28;20226;-68
2023/08/22 05:46:55;;;;;;;11.43;10.43;;;;;;;;;;5049710;28;20218;-68
2023/08/22 05:49:22;;;;;;;12.00;10.68;;;;;;;;;;5049376;28;20210;-67
2023/08/22 05:51:48;;;;;;;12.15;10.10;;;;;;;;;;5052422;28;20251;-68
2023/08/22 05:54:14;;;;;;;10.70;9.65;;;;;;;;;;5051399;28;20647;-68
2023/08/22 05:56:42;;;;;;;11.35;10.15;;;;;;;;;;5049528;28;20253;-67
2023/08/22 05:59:09;;;;;;;11.13;10.07;;;;;;;;;;5051720;28;20223;-68
2023/08/22 06:01:35;;;;;;;14.80;10.38;;;;;;;;;;5048334;28;20203;-69
2023/08/22 06:04:01;;;;;;;14.18;11.05;;;;;;;;;;5048403;28;20215;-68
2023/08/22 06:06:28;;;;;;;10.73;9.85;;;;;;;;;;5049653;28;20229;-68
2023/08/22 06:08:54;;;;;;;9.95;9.25;;;;;;;;;;5050886;28;20273;-68
2023/08/22 06:11:21;;;;;;;13.88;9.18;;;;;;;;;;5048601;28;20206;-69
2023/08/22 06:13:50;;;;;;;10.40;9.63;;;;;;;;;;5046954;28;20209;-69
2023/08/22 06:16:16;;;;;;;12.18;9.48;;;;;;;;;;5051303;28;20285;-68
2023/08/22 06:18:43;;;;;;;10.13;9.43;;;;;;;;;;5062217;28;20254;-69
2023/08/22 06:21:09;;;;;;;10.20;9.40;;;;;;;;;;5062760;28;20194;-69
2023/08/22 06:23:35;;;;;;;10.00;9.38;;;;;;;;;;5063510;28;20300;-69
2023/08/22 06:26:02;;;;;;;11.27;9.32;;;;;;;;;;5061940;28;20195;-69
2023/08/22 06:28:28;;;;;;;9.13;8.45;;;;;;;;;;5061204;28;20198;-70
2023/08/22 06:31:00;;;;;;;9.73;8.90;;;;;;;;;;5050063;28;20246;-69
2023/08/22 06:33:27;;;;;;;9.18;8.25;;;;;;;;;;5049587;28;20230;-69
2023/08/22 06:35:53;;;;;;;9.90;9.13;;;;;;;;;;5063647;28;20292;-69
2023/08/22 06:38:20;;;;;;;10.48;8.50;;;;;;;;;;5064079;28;20826;-70
2023/08/22 06:40:46;;;;;;;10.98;9.38;;;;;;;;;;5064031;28;20198;-68
2023/08/22 06:43:13;;;;;;;9.90;8.98;;;;;;;;;;5063816;28;20236;-69
2023/08/22 06:45:39;;;;;;;14.45;9.10;;;;;;;;;;5063869;28;20205;-69
2023/08/22 06:48:07;;;;;;;9.93;8.38;;;;;;;;;;5066970;28;20202;-69
2023/08/22 06:50:34;;;;;;;12.27;8.65;;;;;;;;;;5068705;28;20240;-69
2023/08/22 06:53:00;;;;;;;9.82;8.63;;;;;;;;;;5068063;28;20682;-70
2023/08/22 06:55:27;;;;;;;9.10;8.50;;;;;;;;;;5067998;28;20271;-67
2023/08/22 06:57:53;;;;;;;10.15;8.98;;;;;;;;;;5068377;28;20695;-69
2023/08/22 07:00:21;;;;;;;10.88;8.77;;;;;;;;;;5068020;28;20670;-67
2023/08/22 07:02:48;;;;;;;9.77;8.25;;;;;;;;;;5067840;28;20200;-68
2023/08/22 07:05:16;;;;;;;13.63;8.38;;;;;;;;;;5066949;28;20193;-69
2023/08/22 07:07:42;;;;;;;9.57;9.00;;;;;;;;;;5067076;28;20233;-70
2023/08/22 07:10:10;;;;;;;9.18;7.95;;;;;;;;;;5067825;28;20225;-70
2023/08/22 07:12:37;;;;;;;8.52;7.80;;;;;;;;;;5067072;28;20229;-69
2023/08/22 07:15:04;;;;;;;9.55;8.45;;;;;;;;;;5067916;28;20232;-67
2023/08/22 07:17:31;;;;;;;11.32;8.27;;;;;;;;;;5067189;28;21311;-70
2023/08/22 07:19:57;;;;;;;9.60;8.60;;;;;;;;;;5066442;28;20598;-70
2023/08/22 07:22:25;;;;;;;9.60;8.50;;;;;;;;;;5052539;28;20214;-71
2023/08/22 07:24:51;;;;;;;9.02;8.20;;;;;;;;;;5050719;28;20760;-69
2023/08/22 07:27:18;;;;;;;9.00;8.13;;;;;;;;;;5054790;28;20194;-67
2023/08/22 07:29:45;;;;;;;11.93;8.00;;;;;;;;;;5054986;28;20683;-70
2023/08/22 07:32:11;;;;;;;8.65;8.15;;;;;;;;;;5067860;28;20287;-70
2023/08/22 07:34:38;;;;;;;8.27;7.78;;;;;;;;;;5067837;28;20636;-70
2023/08/22 07:37:05;;;;;;;9.10;8.38;;;;;;;;;;5069674;28;20197;-69
2023/08/22 07:39:32;;;;;;;8.82;8.10;;;;;;;;;;5066557;28;20222;-69
2023/08/22 07:41:59;;;;;;;9.05;8.23;;;;;;;;;;5054249;28;20762;-70
2023/08/22 07:44:25;;;;;;;8.73;7.95;;;;;;;;;;5055489;28;20672;-69
2023/08/22 07:46:52;;;;;;;8.32;7.68;;;;;;;;;;5059726;28;20865;-69
2023/08/22 07:49:18;;;;;;;8.55;7.80;;;;;;;;;;5058781;28;20229;-69
2023/08/22 07:51:45;;;;;;;9.35;8.63;;;;;;;;;;5062514;28;20240;-70
2023/08/22 07:54:11;;;;;;;8.13;7.63;;;;;;;;;;5063213;28;20213;-70
2023/08/22 07:56:39;;;;;;;10.85;8.05;;;;;;;;;;5065628;28;21699;-70
2023/08/22 07:59:05;;;;;;;10.73;9.10;;;;;;;;;;5064725;28;20217;-70
2023/08/22 08:01:33;;;;;;;9.80;8.88;;;;;;;;;;5066816;28;20275;-69
2023/08/22 08:03:59;;;;;;;14.27;7.90;;;;;;;;;;5064458;28;20221;-70
2023/08/22 08:06:25;;;;;;;8.93;8.23;;;;;;;;;;5051966;28;20873;-69
2023/08/22 08:08:52;;;;;;;12.15;8.40;;;;;;;;;;5051065;28;20252;-70
2023/08/22 08:11:19;;;;;;;9.23;8.48;;;;;;;;;;5052847;28;20210;-70
2023/08/22 08:13:47;;;;;;;9.75;8.77;;;;;;;;;;5053165;28;20194;-70
2023/08/22 08:16:14;;;;;;;8.75;8.10;;;;;;;;;;5062581;28;20219;-70
2023/08/22 08:18:40;;;;;;;90.65;79.00;;;;;;;;;;5067815;28;20209;-71
2023/08/22 08:21:07;;;;;;;20.27;18.27;;;;;;;;;;5065168;28;20715;-73
2023/08/22 08:23:33;;;;;;;16.88;15.57;;;;;;;;;;5064306;28;20387;-72
2023/08/22 08:26:01;;;;;;;10.60;9.65;;;;;;;;;;5064106;28;20205;-72
2023/08/22 08:28:28;;;;;;;10.57;8.10;;;;;;;;;;5066429;28;20210;-72
2023/08/22 08:30:55;;;;;;;8.35;7.65;;;;;;;;;;5052642;28;20680;-70
2023/08/22 08:33:22;;;;;;;9.60;8.80;;;;;;;;;;5054196;28;20210;-69
2023/08/22 08:35:48;;;;;;;9.52;8.60;;;;;;;;;;5053001;28;20234;-71
2023/08/22 08:38:15;;;;;;;14.88;8.63;;;;;;;;;;5052674;28;20688;-69
2023/08/22 08:40:42;;;;;;;9.85;8.18;;;;;;;;;;5053557;28;20218;-74
2023/08/22 08:43:09;;;;;;;12.35;8.20;;;;;;;;;;5055069;28;20225;-70
2023/08/22 08:45:36;;;;;;;13.48;8.63;;;;;;;;;;5055958;28;20634;-73
2023/08/22 08:48:04;;;;;;;10.15;8.65;;;;;;;;;;5049989;28;20198;-71
2023/08/22 08:50:31;;;;;;;10.82;7.88;;;;;;;;;;5052876;28;20207;-72
2023/08/22 08:52:59;;;;;;;7.65;6.95;;;;;;;;;;5057055;28;20225;-71
2023/08/22 08:55:25;;;;;;;10.95;7.10;;;;;;;;;;5065496;28;20255;-72
2023/08/22 08:57:52;;;;;;;9.25;8.02;;;;;;;;;;5065625;28;20205;-71
2023/08/22 09:00:19;;;;;;;17.20;8.07;;;;;;;;;;5060256;28;20712;-72
2023/08/22 09:02:46;;;;;;;7.97;6.22;;;;;;;;;;5064506;28;20232;-70
2023/08/22 09:05:13;;;;;;;15.80;6.72;;;;;;;;;;5065357;28;20264;-70
2023/08/22 09:07:40;;;;;;;7.82;7.00;;;;;;;;;;5059827;28;20222;-70
2023/08/22 09:10:07;;;;;;;8.15;7.40;;;;;;;;;;5048624;28;20191;-69
2023/08/22 09:12:34;;;;;;;7.82;7.07;;;;;;;;;;5047473;28;20258;-72
2023/08/22 09:15:00;;;;;;;11.27;7.65;;;;;;;;;;5047734;28;20593;-71
2023/08/22 09:17:28;;;;;;;8.20;7.03;;;;;;;;;;5048682;28;20322;-71
2023/08/22 09:19:55;;;;;;;11.63;7.47;;;;;;;;;;5050582;28;20255;-70
2023/08/22 09:22:28;;;;;;;18.38;13.85;;;;;;;;;;5050424;28;20582;-70
2023/08/22 09:24:55;;;;;;;6.45;5.82;;;;;;;;;;5048864;28;20203;-71
2023/08/22 09:27:23;;;;;;;6.07;5.63;;;;;;;;;;5047777;28;20210;-71
2023/08/22 09:29:49;;;;;;;10.10;6.60;;;;;;;;;;5049258;28;20203;-70
2023/08/22 09:32:16;;;;;;;9.27;6.03;;;;;;;;;;5064885;28;20263;-69
2023/08/22 09:34:52;;;;;;;9.82;7.55;;;;;;;;;;5059559;28;20240;-70
2023/08/22 09:37:29;;;;;;;7.05;5.95;;;;;;;;;;5065588;28;20264;-70
2023/08/22 09:39:55;;;;;;;8.75;6.60;;;;;;;;;;5063779;28;20245;-69
2023/08/22 09:42:22;;;;;;;10.40;7.32;;;;;;;;;;5065259;28;20249;-69
2023/08/22 09:44:49;;;;;;;8.55;7.03;;;;;;;;;;5065563;28;20256;-70
2023/08/22 09:47:16;;;;;;;11.05;6.95;;;;;;;;;;5064564;28;20206;-70
2023/08/22 09:49:43;;;;;;;9.35;5.85;;;;;;;;;;5063854;28;20195;-70
2023/08/22 09:52:10;;;;;;;7.90;7.13;;;;;;;;;;5064565;28;20252;-70
2023/08/22 09:54:38;;;;;;;14.82;9.10;;;;;;;;;;5064426;28;21046;-69
2023/08/22 09:57:05;;;;;;;7.63;6.18;;;;;;;;;;5054003;28;20234;-70
2023/08/22 09:59:31;;;;;;;7.93;7.05;;;;;;;;;;5048527;28;20203;-69
2023/08/22 10:01:59;;;;;;;7.60;5.80;;;;;;;;;;5048287;28;20202;-70
2023/08/22 10:04:26;;;;;;;5.70;5.20;;;;;;;;;;5051430;28;20203;-69
2023/08/22 10:06:53;;;;;;;8.90;6.53;;;;;;;;;;5046977;28;20211;-66
2023/08/22 10:09:19;;;;;;;6.32;5.80;;;;;;;;;;5056669;28;20308;-70
2023/08/22 10:11:49;;;;;;;6.47;6.03;;;;;;;;;;5063150;28;20625;-70
2023/08/22 10:14:19;;;;;;;7.05;6.55;;;;;;;;;;5061074;28;20214;-69
2023/08/22 10:16:46;;;;;;;7.55;6.30;;;;;;;;;;5060346;28;20206;-69
2023/08/22 10:19:12;;;;;;;8.57;6.75;;;;;;;;;;5047358;28;20203;-69
2023/08/22 10:21:43;;;;;;;8.18;6.05;;;;;;;;;;5048693;28;20270;-70
2023/08/22 10:24:19;;;;;;;6.63;6.18;;;;;;;;;;5051695;28;20216;-68
2023/08/22 10:26:50;;;;;;;9.45;6.55;;;;;;;;;;5050697;28;20260;-69
2023/08/22 10:29:17;;;;;;;11.32;6.07;;;;;;;;;;5066496;28;20771;-69
2023/08/22 10:32:03;;;;;;;6.43;5.93;;;;;;;;;;5067065;28;20202;-69
2023/08/22 10:34:50;;;;;;;6.70;6.13;;;;;;;;;;5063590;28;20289;-70
2023/08/22 10:37:18;;;;;;;6.95;5.97;;;;;;;32.97;nan;95374.25;5055770;28;20231;-70
2023/08/22 10:39:45;;;;;;;6.28;5.78;;;;;;;;;;5050355;28;20226;-69
2023/08/22 10:42:18;;;;;;;6.45;5.78;;;;;;;;;;5059556;28;20253;-68
2023/08/22 10:44:48;;;;;;;6.15;5.75;;;;;;;;;;5061451;28;20198;-69
2023/08/22 10:47:17;;;;;;;7.88;6.68;;;;;;;;;;5052503;28;20298;-69
2023/08/22 10:49:43;;;;;;;7.57;6.50;;;;;;;;;;5061881;28;20202;-69
2023/08/22 10:52:10;;;;;;;6.53;6.03;;;;;;;;;;5068054;28;20712;-69
2023/08/22 10:54:51;;;;;;;7.22;6.53;;;;;;;;;;5066786;28;20194;-69
2023/08/22 10:57:19;;;;;;;7.80;7.00;;;;;;;;;;5061070;28;20284;-68
2023/08/22 10:59:56;;;;;;;6.55;6.25;;;;;;;;;;5049756;28;20223;-69
2023/08/22 11:02:23;;;;;;;7.10;6.15;;;;;;;;;;5054878;28;20206;-68
2023/08/22 11:04:50;;;;;;;5.88;5.47;;;;;;;;;;5059787;28;20629;-68
2023/08/22 11:07:16;;;;;;;7.90;5.70;;;;;;;;;;5050113;28;20203;-69
2023/08/22 11:09:43;;;;;;;7.32;6.50;;;;;;;;;;5066532;28;20264;-68
2023/08/22 11:12:17;;;;;;;9.30;6.07;;;;;;;;;;5066839;28;20295;-68
2023/08/22 11:14:48;;;;;;;6.75;6.13;;;;;;;;;;5066439;28;20618;-69
2023/08/22 11:17:15;;;;;;;6.78;6.18;;;;;;;;;;5059162;28;20253;-69
2023/08/22 11:19:42;;;;;;;6.43;5.88;;;;;;;;;;5052670;28;20834;-69
2023/08/22 11:22:08;;;;;;;6.15;5.57;;;;;;;;;;5052763;28;20289;-69
2023/08/22 11:24:35;;;;;;;9.43;6.25;;;;;;;;;;5064894;28;20225;-69
2023/08/22 11:27:03;;;;;;;6.53;6.13;;;;;;;;;;5067845;28;20198;-69
2023/08/22 11:29:30;;;;;;;7.05;6.63;;;;;;;;;;5067805;28;20209;-68
2023/08/22 11:31:58;;;;;;;8.07;6.28;;;;;;;;;;5067663;28;20692;-69
2023/08/22 11:34:24;;;;;;;5.90;5.60;;;;;;;;;;5065818;28;20214;-68
2023/08/22 11:36:51;;;;;;;6.97;6.03;;;;;;;;;;5066682;28;20686;-69
2023/08/22 11:39:17;;;;;;;7.72;6.40;;;;;;;;;;5066507;28;20219;-68
2023/08/22 11:41:43;;;;;;;6.85;6.22;;;;;;;;;;5078785;27;20228;-68
2023/08/22 11:44:13;;;;;;;6.03;5.40;;;;;;;;;;5107654;27;20217;-68
2023/08/22 11:46:41;;;;;;;9.05;6.18;;;;;;;;;;5106163;27;20200;-68
2023/08/22 11:49:08;;;;;;;7.18;6.25;;;;;;;;;;5106773;28;20228;-69
2023/08/22 11:51:35;;;;;;;7.30;6.80;;;;;;;;;;5107181;27;20693;-68
2023/08/22 11:54:01;;;;;;;13.18;8.13;;;;;;;;;;5106708;27;20252;-69
2023/08/22 11:56:28;;;;;;;7.45;6.60;;;;;;;;;;5107658;27;20197;-69
2023/08/22 11:58:55;;;;;;;13.18;6.63;;;;;;;;;;5107077;28;20197;-69
2023/08/22 12:01:23;;;;;;;9.05;6.18;;;;;;;;;;5107842;27;20220;-68
2023/08/22 12:03:49;;;;;;;7.15;6.50;;;;;;;;;;5107811;27;20761;-69
2023/08/22 12:06:17;;;;;;;9.38;6.55;;;;;;;;;;5106519;27;20232;-69
2023/08/22 12:08:54;;;;;;;17.00;6.68;;;;;;;;;;5106272;28;20280;-68
2023/08/22 12:11:24;;;;;;;11.70;6.57;;;;;;;;;;5102596;27;20288;-68
2023/08/22 12:13:52;;;;;;;6.50;6.00;;;;;;;;;;5106548;27;20205;-69
2023/08/22 12:16:18;;;;;;;7.03;6.53;;;;;;;;;;5105559;27;20587;-68
2023/08/22 12:18:44;;;;;;;6.72;6.20;;;;;;;;;;5094793;27;20193;-68
2023/08/22 12:21:11;;;;;;;7.00;6.50;;;;;;;;;;5098929;27;20638;-68
2023/08/22 12:23:39;;;;;;;10.07;6.85;;;;;;;;;;5104385;28;20621;-68
2023/08/22 12:26:05;;;;;;;9.80;6.18;;;;;;;;;;5093327;27;20270;-68
2023/08/22 12:28:32;;;;;;;6.97;6.47;;;;;;;;;;5088679;28;20255;-68
2023/08/22 12:30:58;;;;;;;6.57;6.22;;;;;;;;;;5089240;27;20251;-68
2023/08/22 12:33:25;;;;;;;6.97;6.28;;;;;;;;;;5087151;28;20212;-68
2023/08/22 12:35:51;;;;;;;6.45;6.13;;;;;;;;;;5091173;28;20701;-69
2023/08/22 12:38:17;;;;;;;7.53;6.85;;;;;;;;;;5090723;27;20202;-69
2023/08/22 12:40:45;;;;;;;9.85;6.32;;;;;;;;;;5087735;27;20724;-68
2023/08/22 12:43:12;;;;;;;6.93;6.32;;;;;;;;;;5088318;28;20233;-68
2023/08/22 12:45:38;;;;;;;8.68;6.25;;;;;;;;;;5104065;27;20205;-69
2023/08/22 12:48:05;;;;;;;6.85;6.35;;;;;;;;;;5106340;28;20223;-69
2023/08/22 12:50:33;;;;;;;7.60;7.05;;;;;;;;;;5105687;27;20209;-68
2023/08/22 12:53:00;;;;;;;9.63;5.68;;;;;;;;;;5104925;28;20221;-68
2023/08/22 12:55:27;;;;;;;9.82;6.47;;;;;;;;;;5105031;28;20207;-68
2023/08/22 12:57:54;;;;;;;8.10;6.20;;;;;;;;;;5106049;27;20618;-69
2023/08/22 13:00:21;;;;;;;9.48;6.82;;;;;;;;;;5105933;28;20200;-68
2023/08/22 13:02:48;;;;;;;6.15;5.35;;;;;;;;;;5105187;27;20208;-68
2023/08/22 13:05:15;;;;;;;11.40;6.60;;;;;;;;;;5106457;27;20232;-69
2023/08/22 13:07:43;;;;;;;9.95;7.05;;;;;;;;;;5106039;27;20199;-68
2023/08/22 13:10:10;;;;;;;7.90;6.70;;;;;;;;;;5104836;28;20246;-67
2023/08/22 13:12:36;;;;;;;17.10;7.43;;;;;;;;;;5092741;28;20217;-68
2023/08/22 13:15:04;;;;;;;11.85;7.85;;;;;;;;;;5088601;28;20198;-67
2023/08/22 13:17:31;;;;;;;13.18;9.07;;;;;;;;;;5087854;28;20313;-68
2023/08/22 13:19:57;;;;;;;13.00;9.98;;;;;;;;;;5088263;27;20607;-68
2023/08/22 13:22:24;;;;;;;16.90;9.82;;;;;;;;;;5088665;28;20672;-67
2023/08/22 13:24:50;;;;;;;10.68;8.48;;;;;;;;;;5088864;28;20244;-67
2023/08/22 13:27:18;;;;;;;9.00;8.10;;;;;;;;;;5090070;27;20225;-67
2023/08/22 13:29:44;;;;;;;12.38;8.73;;;;;;;;;;5090800;28;20774;-67
2023/08/22 13:32:12;;;;;;;9.00;8.23;;;;;;;;;;5099762;27;20747;-67
2023/08/22 13:34:39;;;;;;;10.02;9.25;;;;;;;;;;5105454;28;20280;-66
2023/08/22 13:37:05;;;;;;;12.93;9.70;;;;;;;;;;5103690;28;20200;-67
2023/08/22 13:39:32;;;;;;;9.45;8.45;;;;;;;;;;5104833;28;20261;-66
2023/08/22 13:41:58;;;;;;;10.15;9.25;;;;;;;;;;5104317;28;20228;-68
2023/08/22 13:44:25;;;;;;;10.00;8.98;;;;;;;;;;5105156;28;20193;-67
2023/08/22 13:46:51;;;;;;;11.75;9.82;;;;;;;;;;5103873;28;20240;-67
2023/08/22 13:49:19;;;;;;;13.32;8.85;;;;;;;;;;5096839;28;20205;-67
2023/08/22 13:51:46;;;;;;;11.95;9.00;;;;;;;;;;5087199;27;21233;-67
2023/08/22 13:54:13;;;;;;;9.82;9.13;;;;;;;;;;5090559;28;20201;-67
2023/08/22 13:56:39;;;;;;;10.63;9.45;;;;;;;;;;5088793;28;20263;-66
2023/08/22 13:59:05;;;;;;;10.77;9.68;;;;;;;;;;5086569;28;20233;-66
2023/08/22 14:01:32;;;;;;;10.35;9.45;;;;;;;;;;5092408;28;20224;-67
2023/08/22 14:03:59;;;;;;;11.15;8.68;;;;;;;;;;5103853;28;20670;-67
2023/08/22 14:06:27;;;;;;;9.82;8.98;;;;;;;;;;5104182;28;20295;-67
2023/08/22 14:08:53;;;;;;;12.52;8.90;;;;;;;;;;5098024;28;20221;-69
2023/08/22 14:11:19;;;;;;;10.15;8.50;;;;;;;;;;5090219;28;20248;-69
2023/08/22 14:13:46;;;;;;;9.05;8.40;;;;;;;;;;5089659;28;20241;-67
2023/08/22 14:16:12;;;;;;;8.90;8.05;;;;;;;;;;5091746;28;20213;-67
2023/08/22 14:18:39;;;;;;;10.15;7.50;;;;;;;;;;5085746;28;21627;-67
2023/08/22 14:21:05;;;;;;;8.95;8.15;;;;;;;;;;5089501;28;20694;-67
2023/08/22 14:23:33;;;;;;;9.13;8.23;;;;;;;;;;5085604;28;20205;-68
2023/08/22 14:25:59;;;;;;;8.88;7.90;;;;;;;;;;5085563;28;20283;-67
2023/08/22 14:28:26;;;;;;;10.82;9.35;;;;;;;;;;5087188;28;20245;-68